sensor_id;sensor_type;location;lat;lon;timestamp;pressure;altitude;pressure_sealevel;temperature;humidity
36234;BME280;43467;50.890;5.982;2024-02-21T00:00:08;100927.66;;;9.74;79.34
36234;BME280;43467;50.890;5.982;2024-02-21T00:02:34;100931.03;;;9.79;78.95
36234;BME280;43467;50.890;5.982;2024-02-21T00:05:00;100923.38;;;9.70;79.66
36234;BME280;43467;50.890;5.982;2024-02-21T00:07:25;100915.28;;;9.75;79.61
36234;BME280;43467;50.890;5.982;2024-02-21T00:09:51;100901.94;;;9.79;79.24
36234;BME280;43467;50.890;5.982;2024-02-21T00:12:16;100891.47;;;9.76;79.25
36234;BME280;43467;50.890;5.982;2024-02-21T00:14:41;100890.59;;;9.76;78.98
36234;BME280;43467;50.890;5.982;2024-02-21T00:17:07;100899.44;;;9.75;79.54
36234;BME280;43467;50.890;5.982;2024-02-21T00:19:33;100897.78;;;9.71;79.47
36234;BME280;43467;50.890;5.982;2024-02-21T00:21:59;100902.84;;;9.78;79.73
36234;BME280;43467;50.890;5.982;2024-02-21T00:24:24;100890.22;;;9.87;79.17
36234;BME280;43467;50.890;5.982;2024-02-21T00:26:50;100904.44;;;9.84;78.83
36234;BME280;43467;50.890;5.982;2024-02-21T00:29:15;100898.38;;;9.80;79.08
36234;BME280;43467;50.890;5.982;2024-02-21T00:31:40;100901.03;;;9.80;79.22
36234;BME280;43467;50.890;5.982;2024-02-21T00:34:07;100894.13;;;9.75;79.79
36234;BME280;43467;50.890;5.982;2024-02-21T00:36:32;100889.53;;;9.82;79.15
36234;BME280;43467;50.890;5.982;2024-02-21T00:38:58;100887.03;;;9.77;79.52
36234;BME280;43467;50.890;5.982;2024-02-21T00:41:23;100882.00;;;9.69;79.88
36234;BME280;43467;50.890;5.982;2024-02-21T00:43:49;100883.38;;;9.81;79.74
36234;BME280;43467;50.890;5.982;2024-02-21T00:46:15;100879.75;;;9.84;79.27
36234;BME280;43467;50.890;5.982;2024-02-21T00:48:40;100878.41;;;9.70;79.63
36234;BME280;43467;50.890;5.982;2024-02-21T00:51:06;100870.91;;;9.85;79.54
36234;BME280;43467;50.890;5.982;2024-02-21T00:53:31;100871.03;;;9.82;79.34
36234;BME280;43467;50.890;5.982;2024-02-21T00:55:56;100853.72;;;9.71;79.45
36234;BME280;43467;50.890;5.982;2024-02-21T00:58:22;100850.97;;;9.74;79.84
36234;BME280;43467;50.890;5.982;2024-02-21T01:00:47;100850.31;;;9.68;80.26
36234;BME280;43467;50.890;5.982;2024-02-21T01:03:13;100843.28;;;9.67;80.08
36234;BME280;43467;50.890;5.982;2024-02-21T01:05:38;100838.91;;;9.66;80.20
36234;BME280;43467;50.890;5.982;2024-02-21T01:08:04;100841.41;;;9.70;80.11
36234;BME280;43467;50.890;5.982;2024-02-21T01:10:30;100836.84;;;9.75;79.99
36234;BME280;43467;50.890;5.982;2024-02-21T01:12:55;100837.75;;;9.74;79.91
36234;BME280;43467;50.890;5.982;2024-02-21T01:15:20;100827.38;;;9.68;80.37
36234;BME280;43467;50.890;5.982;2024-02-21T01:17:46;100839.69;;;9.69;80.29
36234;BME280;43467;50.890;5.982;2024-02-21T01:20:11;100836.06;;;9.72;80.25
36234;BME280;43467;50.890;5.982;2024-02-21T01:22:37;100843.34;;;9.65;80.74
36234;BME280;43467;50.890;5.982;2024-02-21T01:25:03;100835.31;;;9.68;80.70
36234;BME280;43467;50.890;5.982;2024-02-21T01:27:28;100826.50;;;9.68;80.55
36234;BME280;43467;50.890;5.982;2024-02-21T01:29:54;100825.53;;;9.70;80.59
36234;BME280;43467;50.890;5.982;2024-02-21T01:32:19;100824.53;;;9.74;80.28
36234;BME280;43467;50.890;5.982;2024-02-21T01:34:45;100816.91;;;9.65;80.46
36234;BME280;43467;50.890;5.982;2024-02-21T01:37:10;100814.28;;;9.65;80.94
36234;BME280;43467;50.890;5.982;2024-02-21T01:39:35;100818.69;;;9.65;81.26
36234;BME280;43467;50.890;5.982;2024-02-21T01:42:01;100811.66;;;9.64;81.36
36234;BME280;43467;50.890;5.982;2024-02-21T01:44:26;100797.38;;;9.69;80.86
36234;BME280;43467;50.890;5.982;2024-02-21T01:46:52;100801.66;;;9.73;80.86
36234;BME280;43467;50.890;5.982;2024-02-21T01:49:19;100798.41;;;9.65;80.97
36234;BME280;43467;50.890;5.982;2024-02-21T01:51:45;100785.94;;;9.69;81.06
36234;BME280;43467;50.890;5.982;2024-02-21T01:54:16;100787.41;;;9.77;80.87
36234;BME280;43467;50.890;5.982;2024-02-21T01:56:43;100780.50;;;9.73;80.80
36234;BME280;43467;50.890;5.982;2024-02-21T01:59:09;100779.63;;;9.73;80.56
36234;BME280;43467;50.890;5.982;2024-02-21T02:01:35;100775.09;;;9.76;80.42
36234;BME280;43467;50.890;5.982;2024-02-21T02:04:00;100770.41;;;9.85;80.08
36234;BME280;43467;50.890;5.982;2024-02-21T02:06:26;100772.41;;;9.78;80.57
36234;BME280;43467;50.890;5.982;2024-02-21T02:08:52;100770.63;;;9.78;80.59
36234;BME280;43467;50.890;5.982;2024-02-21T02:11:18;100761.16;;;9.71;80.65
36234;BME280;43467;50.890;5.982;2024-02-21T02:13:43;100768.09;;;9.75;80.34
36234;BME280;43467;50.890;5.982;2024-02-21T02:16:09;100756.91;;;9.67;81.16
36234;BME280;43467;50.890;5.982;2024-02-21T02:18:34;100759.59;;;9.66;81.05
36234;BME280;43467;50.890;5.982;2024-02-21T02:21:00;100755.28;;;9.63;80.74
36234;BME280;43467;50.890;5.982;2024-02-21T02:25:54;100763.69;;;9.74;80.66
36234;BME280;43467;50.890;5.982;2024-02-21T02:28:20;100773.38;;;9.75;80.52
36234;BME280;43467;50.890;5.982;2024-02-21T02:30:46;100750.97;;;9.61;80.87
36234;BME280;43467;50.890;5.982;2024-02-21T02:33:11;100776.84;;;9.77;80.94
36234;BME280;43467;50.890;5.982;2024-02-21T02:35:37;100770.47;;;9.83;80.24
36234;BME280;43467;50.890;5.982;2024-02-21T02:38:03;100762.38;;;9.88;80.13
36234;BME280;43467;50.890;5.982;2024-02-21T02:40:29;100743.09;;;9.84;80.01
36234;BME280;43467;50.890;5.982;2024-02-21T02:42:54;100735.22;;;9.82;80.22
36234;BME280;43467;50.890;5.982;2024-02-21T02:45:23;100735.56;;;9.73;80.21
36234;BME280;43467;50.890;5.982;2024-02-21T02:47:49;100731.66;;;9.84;80.29
36234;BME280;43467;50.890;5.982;2024-02-21T02:50:15;100718.66;;;9.77;80.46
36234;BME280;43467;50.890;5.982;2024-02-21T02:52:40;100716.09;;;9.74;80.18
36234;BME280;43467;50.890;5.982;2024-02-21T02:55:06;100715.47;;;9.68;80.50
36234;BME280;43467;50.890;5.982;2024-02-21T02:57:32;100722.63;;;9.64;80.71
36234;BME280;43467;50.890;5.982;2024-02-21T02:59:57;100723.59;;;9.62;81.03
36234;BME280;43467;50.890;5.982;2024-02-21T03:02:23;100721.53;;;9.70;80.99
36234;BME280;43467;50.890;5.982;2024-02-21T03:04:48;100711.16;;;9.65;80.70
36234;BME280;43467;50.890;5.982;2024-02-21T03:07:14;100710.31;;;9.63;80.69
36234;BME280;43467;50.890;5.982;2024-02-21T03:09:40;100703.41;;;9.59;81.06
36234;BME280;43467;50.890;5.982;2024-02-21T03:12:08;100696.91;;;9.69;80.70
36234;BME280;43467;50.890;5.982;2024-02-21T03:14:33;100706.63;;;9.69;80.49
36234;BME280;43467;50.890;5.982;2024-02-21T03:16:58;100713.09;;;9.85;80.22
36234;BME280;43467;50.890;5.982;2024-02-21T03:19:24;100710.50;;;9.84;80.10
36234;BME280;43467;50.890;5.982;2024-02-21T03:21:50;100705.09;;;9.87;79.92
36234;BME280;43467;50.890;5.982;2024-02-21T03:24:16;100694.94;;;9.74;80.04
36234;BME280;43467;50.890;5.982;2024-02-21T03:26:41;100702.44;;;9.87;79.61
36234;BME280;43467;50.890;5.982;2024-02-21T03:29:07;100696.69;;;9.75;80.40
36234;BME280;43467;50.890;5.982;2024-02-21T03:31:34;100705.44;;;9.77;80.22
36234;BME280;43467;50.890;5.982;2024-02-21T03:34:00;100700.94;;;9.79;80.37
36234;BME280;43467;50.890;5.982;2024-02-21T03:36:25;100712.63;;;9.74;80.22
36234;BME280;43467;50.890;5.982;2024-02-21T03:38:50;100700.31;;;9.73;80.59
36234;BME280;43467;50.890;5.982;2024-02-21T03:41:16;100696.81;;;9.72;80.23
36234;BME280;43467;50.890;5.982;2024-02-21T03:43:41;100683.53;;;9.74;80.09
36234;BME280;43467;50.890;5.982;2024-02-21T03:46:06;100684.31;;;9.76;80.08
36234;BME280;43467;50.890;5.982;2024-02-21T03:48:32;100680.94;;;9.72;80.09
36234;BME280;43467;50.890;5.982;2024-02-21T03:50:58;100673.88;;;9.73;80.16
36234;BME280;43467;50.890;5.982;2024-02-21T03:53:23;100673.03;;;9.71;80.29
36234;BME280;43467;50.890;5.982;2024-02-21T03:55:48;100671.50;;;9.65;80.22
36234;BME280;43467;50.890;5.982;2024-02-21T03:58:14;100666.13;;;9.67;80.34
36234;BME280;43467;50.890;5.982;2024-02-21T04:00:39;100654.09;;;9.58;80.98
36234;BME280;43467;50.890;5.982;2024-02-21T04:03:05;100661.50;;;9.73;80.58
36234;BME280;43467;50.890;5.982;2024-02-21T04:05:31;100658.09;;;9.70;80.11
36234;BME280;43467;50.890;5.982;2024-02-21T04:07:57;100651.81;;;9.74;80.07
36234;BME280;43467;50.890;5.982;2024-02-21T04:10:22;100646.59;;;9.71;80.11
36234;BME280;43467;50.890;5.982;2024-02-21T04:12:47;100650.69;;;9.79;79.64
36234;BME280;43467;50.890;5.982;2024-02-21T04:15:16;100650.38;;;9.89;79.25
36234;BME280;43467;50.890;5.982;2024-02-21T04:17:41;100653.03;;;9.89;79.30
36234;BME280;43467;50.890;5.982;2024-02-21T04:20:14;100643.88;;;9.74;79.36
36234;BME280;43467;50.890;5.982;2024-02-21T04:22:40;100647.44;;;9.73;79.27
36234;BME280;43467;50.890;5.982;2024-02-21T04:25:06;100631.91;;;9.62;79.70
36234;BME280;43467;50.890;5.982;2024-02-21T04:27:31;100635.41;;;9.64;79.68
36234;BME280;43467;50.890;5.982;2024-02-21T04:29:57;100631.50;;;9.74;79.42
36234;BME280;43467;50.890;5.982;2024-02-21T04:32:22;100630.03;;;9.66;79.66
36234;BME280;43467;50.890;5.982;2024-02-21T04:34:48;100634.28;;;9.70;79.86
36234;BME280;43467;50.890;5.982;2024-02-21T04:37:13;100628.41;;;9.62;79.64
36234;BME280;43467;50.890;5.982;2024-02-21T04:39:39;100630.44;;;9.55;79.57
36234;BME280;43467;50.890;5.982;2024-02-21T04:42:04;100630.66;;;9.49;79.72
36234;BME280;43467;50.890;5.982;2024-02-21T04:44:30;100629.13;;;9.42;80.17
36234;BME280;43467;50.890;5.982;2024-02-21T04:46:55;100625.59;;;9.42;80.40
36234;BME280;43467;50.890;5.982;2024-02-21T04:49:20;100613.06;;;9.48;80.22
36234;BME280;43467;50.890;5.982;2024-02-21T04:51:46;100630.59;;;9.51;79.84
36234;BME280;43467;50.890;5.982;2024-02-21T04:54:11;100629.63;;;9.53;79.93
36234;BME280;43467;50.890;5.982;2024-02-21T04:56:36;100625.88;;;9.59;79.78
36234;BME280;43467;50.890;5.982;2024-02-21T04:59:02;100627.81;;;9.54;79.72
36234;BME280;43467;50.890;5.982;2024-02-21T05:01:28;100632.94;;;9.58;79.56
36234;BME280;43467;50.890;5.982;2024-02-21T05:03:53;100620.91;;;9.50;79.78
36234;BME280;43467;50.890;5.982;2024-02-21T05:06:19;100630.31;;;9.58;79.61
36234;BME280;43467;50.890;5.982;2024-02-21T05:08:44;100613.66;;;9.56;79.23
36234;BME280;43467;50.890;5.982;2024-02-21T05:11:10;100617.22;;;9.55;79.37
36234;BME280;43467;50.890;5.982;2024-02-21T05:13:35;100610.41;;;9.48;79.57
36234;BME280;43467;50.890;5.982;2024-02-21T05:16:00;100618.22;;;9.51;79.52
36234;BME280;43467;50.890;5.982;2024-02-21T05:18:27;100617.44;;;9.49;79.84
36234;BME280;43467;50.890;5.982;2024-02-21T05:20:53;100599.72;;;9.51;79.42
36234;BME280;43467;50.890;5.982;2024-02-21T05:23:18;100589.38;;;9.45;79.43
36234;BME280;43467;50.890;5.982;2024-02-21T05:25:44;100595.63;;;9.43;79.30
36234;BME280;43467;50.890;5.982;2024-02-21T05:28:09;100600.47;;;9.55;79.42
36234;BME280;43467;50.890;5.982;2024-02-21T05:30:34;100603.28;;;9.50;79.96
36234;BME280;43467;50.890;5.982;2024-02-21T05:33:04;100605.84;;;9.53;80.38
36234;BME280;43467;50.890;5.982;2024-02-21T05:35:30;100599.41;;;9.60;80.13
36234;BME280;43467;50.890;5.982;2024-02-21T05:37:55;100591.81;;;9.51;80.69
36234;BME280;43467;50.890;5.982;2024-02-21T05:40:23;100590.81;;;9.54;80.93
36234;BME280;43467;50.890;5.982;2024-02-21T05:42:48;100579.59;;;9.47;81.31
36234;BME280;43467;50.890;5.982;2024-02-21T05:45:14;100577.59;;;9.54;81.17
36234;BME280;43467;50.890;5.982;2024-02-21T05:47:41;100580.19;;;9.55;81.17
36234;BME280;43467;50.890;5.982;2024-02-21T05:50:06;100584.00;;;9.48;81.84
36234;BME280;43467;50.890;5.982;2024-02-21T05:52:32;100572.44;;;9.51;81.61
36234;BME280;43467;50.890;5.982;2024-02-21T05:54:57;100562.59;;;9.54;81.68
36234;BME280;43467;50.890;5.982;2024-02-21T05:57:23;100563.06;;;9.42;82.43
36234;BME280;43467;50.890;5.982;2024-02-21T05:59:48;100573.56;;;9.44;82.24
36234;BME280;43467;50.890;5.982;2024-02-21T06:02:13;100571.53;;;9.52;82.33
36234;BME280;43467;50.890;5.982;2024-02-21T06:04:39;100577.84;;;9.48;82.59
36234;BME280;43467;50.890;5.982;2024-02-21T06:07:04;100572.72;;;9.43;82.56
36234;BME280;43467;50.890;5.982;2024-02-21T06:09:30;100575.34;;;9.43;82.59
36234;BME280;43467;50.890;5.982;2024-02-21T06:11:55;100569.88;;;9.49;82.16
36234;BME280;43467;50.890;5.982;2024-02-21T06:14:20;100574.31;;;9.47;81.94
36234;BME280;43467;50.890;5.982;2024-02-21T06:16:46;100570.06;;;9.43;82.02
36234;BME280;43467;50.890;5.982;2024-02-21T06:19:11;100570.78;;;9.48;81.67
36234;BME280;43467;50.890;5.982;2024-02-21T06:21:37;100577.69;;;9.52;81.37
36234;BME280;43467;50.890;5.982;2024-02-21T06:24:03;100573.63;;;9.42;81.33
36234;BME280;43467;50.890;5.982;2024-02-21T06:26:29;100554.16;;;9.45;80.85
36234;BME280;43467;50.890;5.982;2024-02-21T06:28:54;100564.91;;;9.40;80.52
36234;BME280;43467;50.890;5.982;2024-02-21T06:31:20;100564.41;;;9.29;80.31
36234;BME280;43467;50.890;5.982;2024-02-21T06:33:45;100559.97;;;9.29;79.90
36234;BME280;43467;50.890;5.982;2024-02-21T06:36:10;100562.97;;;9.20;79.71
36234;BME280;43467;50.890;5.982;2024-02-21T06:38:36;100554.31;;;9.15;79.60
36234;BME280;43467;50.890;5.982;2024-02-21T06:41:01;100544.63;;;9.16;79.45
36234;BME280;43467;50.890;5.982;2024-02-21T06:43:28;100544.06;;;9.31;78.89
36234;BME280;43467;50.890;5.982;2024-02-21T06:45:53;100549.19;;;9.36;78.17
36234;BME280;43467;50.890;5.982;2024-02-21T06:48:20;100548.50;;;9.30;77.98
36234;BME280;43467;50.890;5.982;2024-02-21T06:50:46;100542.56;;;9.24;78.36
36234;BME280;43467;50.890;5.982;2024-02-21T06:53:12;100554.28;;;9.17;78.16
36234;BME280;43467;50.890;5.982;2024-02-21T06:55:37;100546.84;;;9.28;78.12
36234;BME280;43467;50.890;5.982;2024-02-21T06:58:02;100546.13;;;9.23;78.18
36234;BME280;43467;50.890;5.982;2024-02-21T07:00:29;100534.25;;;9.10;78.11
36234;BME280;43467;50.890;5.982;2024-02-21T07:02:55;100537.72;;;9.12;77.84
36234;BME280;43467;50.890;5.982;2024-02-21T07:05:20;100539.66;;;9.07;77.69
36234;BME280;43467;50.890;5.982;2024-02-21T07:07:45;100545.66;;;9.12;77.23
36234;BME280;43467;50.890;5.982;2024-02-21T07:10:11;100547.53;;;9.08;77.74
36234;BME280;43467;50.890;5.982;2024-02-21T07:12:36;100541.97;;;9.16;76.92
36234;BME280;43467;50.890;5.982;2024-02-21T07:15:04;100546.44;;;9.14;77.13
36234;BME280;43467;50.890;5.982;2024-02-21T07:17:30;100540.63;;;9.04;77.12
36234;BME280;43467;50.890;5.982;2024-02-21T07:19:55;100542.25;;;9.08;76.55
36234;BME280;43467;50.890;5.982;2024-02-21T07:22:25;100550.78;;;9.16;76.22
36234;BME280;43467;50.890;5.982;2024-02-21T07:24:50;100548.88;;;9.20;76.39
36234;BME280;43467;50.890;5.982;2024-02-21T07:27:16;100544.19;;;9.28;76.05
36234;BME280;43467;50.890;5.982;2024-02-21T07:29:41;100549.78;;;9.19;75.99
36234;BME280;43467;50.890;5.982;2024-02-21T07:32:07;100542.50;;;9.25;75.99
36234;BME280;43467;50.890;5.982;2024-02-21T07:34:32;100543.31;;;9.27;75.91
36234;BME280;43467;50.890;5.982;2024-02-21T07:36:57;100529.84;;;9.35;75.76
36234;BME280;43467;50.890;5.982;2024-02-21T07:39:23;100526.41;;;9.33;76.16
36234;BME280;43467;50.890;5.982;2024-02-21T07:41:48;100518.63;;;9.28;76.10
36234;BME280;43467;50.890;5.982;2024-02-21T07:44:15;100508.81;;;9.32;76.18
36234;BME280;43467;50.890;5.982;2024-02-21T07:46:40;100522.06;;;9.30;75.83
36234;BME280;43467;50.890;5.982;2024-02-21T07:49:06;100517.94;;;9.23;75.38
36234;BME280;43467;50.890;5.982;2024-02-21T07:51:31;100511.56;;;9.29;75.45
36234;BME280;43467;50.890;5.982;2024-02-21T07:53:57;100516.03;;;9.27;75.79
36234;BME280;43467;50.890;5.982;2024-02-21T07:56:22;100508.75;;;9.33;75.47
36234;BME280;43467;50.890;5.982;2024-02-21T07:58:48;100505.91;;;9.40;75.75
36234;BME280;43467;50.890;5.982;2024-02-21T08:01:18;100505.72;;;9.44;75.08
36234;BME280;43467;50.890;5.982;2024-02-21T08:03:47;100497.69;;;9.47;74.98
36234;BME280;43467;50.890;5.982;2024-02-21T08:06:13;100501.88;;;9.53;74.83
36234;BME280;43467;50.890;5.982;2024-02-21T08:08:39;100484.34;;;9.50;74.92
36234;BME280;43467;50.890;5.982;2024-02-21T08:11:05;100492.19;;;9.53;74.64
36234;BME280;43467;50.890;5.982;2024-02-21T08:13:30;100475.34;;;9.56;74.80
36234;BME280;43467;50.890;5.982;2024-02-21T08:15:56;100469.81;;;9.62;74.42
36234;BME280;43467;50.890;5.982;2024-02-21T08:18:22;100473.84;;;9.72;74.06
36234;BME280;43467;50.890;5.982;2024-02-21T08:20:48;100463.47;;;9.66;73.87
36234;BME280;43467;50.890;5.982;2024-02-21T08:23:16;100465.47;;;9.61;73.98
36234;BME280;43467;50.890;5.982;2024-02-21T08:25:42;100453.66;;;9.46;74.27
36234;BME280;43467;50.890;5.982;2024-02-21T08:28:07;100439.97;;;9.58;73.97
36234;BME280;43467;50.890;5.982;2024-02-21T08:30:33;100413.34;;;9.41;73.52
36234;BME280;43467;50.890;5.982;2024-02-21T08:32:59;100438.38;;;9.54;73.77
36234;BME280;43467;50.890;5.982;2024-02-21T08:35:25;100430.53;;;9.53;73.86
36234;BME280;43467;50.890;5.982;2024-02-21T08:37:50;100433.91;;;9.56;73.94
36234;BME280;43467;50.890;5.982;2024-02-21T08:40:16;100426.03;;;9.55;73.66
36234;BME280;43467;50.890;5.982;2024-02-21T08:42:46;100419.56;;;9.62;73.29
36234;BME280;43467;50.890;5.982;2024-02-21T08:45:12;100413.50;;;9.60;73.58
36234;BME280;43467;50.890;5.982;2024-02-21T08:47:40;100412.13;;;9.50;73.53
36234;BME280;43467;50.890;5.982;2024-02-21T08:50:06;100403.66;;;9.63;73.45
36234;BME280;43467;50.890;5.982;2024-02-21T08:52:32;100389.28;;;9.70;73.34
36234;BME280;43467;50.890;5.982;2024-02-21T08:54:58;100387.41;;;9.74;72.98
36234;BME280;43467;50.890;5.982;2024-02-21T08:57:23;100379.38;;;9.75;73.06
36234;BME280;43467;50.890;5.982;2024-02-21T08:59:49;100374.66;;;9.84;72.87
36234;BME280;43467;50.890;5.982;2024-02-21T09:02:14;100362.09;;;9.89;72.25
36234;BME280;43467;50.890;5.982;2024-02-21T09:04:41;100371.31;;;10.00;72.44
36234;BME280;43467;50.890;5.982;2024-02-21T09:07:06;100361.00;;;9.94;71.83
36234;BME280;43467;50.890;5.982;2024-02-21T09:09:32;100355.75;;;9.93;72.13
36234;BME280;43467;50.890;5.982;2024-02-21T09:11:58;100344.88;;;10.00;72.09
36234;BME280;43467;50.890;5.982;2024-02-21T09:14:31;100342.22;;;10.00;72.12
36234;BME280;43467;50.890;5.982;2024-02-21T09:16:56;100337.78;;;10.01;71.89
36234;BME280;43467;50.890;5.982;2024-02-21T09:19:21;100332.69;;;9.96;72.12
36234;BME280;43467;50.890;5.982;2024-02-21T09:21:47;100332.91;;;10.12;72.17
36234;BME280;43467;50.890;5.982;2024-02-21T09:24:13;100325.13;;;10.09;71.89
36234;BME280;43467;50.890;5.982;2024-02-21T09:26:38;100321.06;;;10.00;71.93
36234;BME280;43467;50.890;5.982;2024-02-21T09:29:04;100321.75;;;10.05;72.17
36234;BME280;43467;50.890;5.982;2024-02-21T09:31:29;100322.41;;;10.10;72.16
36234;BME280;43467;50.890;5.982;2024-02-21T09:33:55;100319.00;;;10.07;72.22
36234;BME280;43467;50.890;5.982;2024-02-21T09:36:20;100317.78;;;10.15;71.90
36234;BME280;43467;50.890;5.982;2024-02-21T09:38:46;100319.75;;;10.10;71.87
36234;BME280;43467;50.890;5.982;2024-02-21T09:41:16;100311.00;;;10.08;71.51
36234;BME280;43467;50.890;5.982;2024-02-21T09:43:45;100318.75;;;10.13;71.86
36234;BME280;43467;50.890;5.982;2024-02-21T09:46:16;100314.19;;;10.18;71.49
36234;BME280;43467;50.890;5.982;2024-02-21T09:51:20;100315.72;;;10.02;72.18
36234;BME280;43467;50.890;5.982;2024-02-21T09:53:47;100301.00;;;10.16;72.20
36234;BME280;43467;50.890;5.982;2024-02-21T09:56:13;100307.94;;;10.19;71.83
36234;BME280;43467;50.890;5.982;2024-02-21T09:58:39;100302.44;;;10.23;71.77
36234;BME280;43467;50.890;5.982;2024-02-21T10:01:06;100290.91;;;10.26;71.65
36234;BME280;43467;50.890;5.982;2024-02-21T10:03:32;100289.22;;;10.23;71.49
36234;BME280;43467;50.890;5.982;2024-02-21T10:05:58;100300.81;;;10.21;72.38
36234;BME280;43467;50.890;5.982;2024-02-21T10:08:26;100281.72;;;10.13;71.92
36234;BME280;43467;50.890;5.982;2024-02-21T10:10:52;100285.22;;;10.13;72.25
36234;BME280;43467;50.890;5.982;2024-02-21T10:13:30;100282.66;;;10.12;72.40
36234;BME280;43467;50.890;5.982;2024-02-21T10:16:05;100281.41;;;10.20;72.27
36234;BME280;43467;50.890;5.982;2024-02-21T10:18:32;100274.50;;;10.18;72.66
36234;BME280;43467;50.890;5.982;2024-02-21T10:21:05;100259.41;;;10.20;72.59
36234;BME280;43467;50.890;5.982;2024-02-21T10:26:07;100245.75;;;10.29;72.45
36234;BME280;43467;50.890;5.982;2024-02-21T10:28:32;100231.06;;;10.42;72.08
36234;BME280;43467;50.890;5.982;2024-02-21T10:30:58;100214.16;;;10.26;72.42
36234;BME280;43467;50.890;5.982;2024-02-21T10:33:23;100212.09;;;10.33;71.96
36234;BME280;43467;50.890;5.982;2024-02-21T10:35:50;100209.22;;;10.37;72.37
36234;BME280;43467;50.890;5.982;2024-02-21T10:38:16;100205.66;;;10.38;72.17
36234;BME280;43467;50.890;5.982;2024-02-21T10:40:42;100203.06;;;10.37;72.38
36234;BME280;43467;50.890;5.982;2024-02-21T10:43:12;100201.44;;;10.34;72.87
36234;BME280;43467;50.890;5.982;2024-02-21T10:45:41;100193.16;;;10.42;72.27
36234;BME280;43467;50.890;5.982;2024-02-21T10:48:14;100168.97;;;10.49;72.10
36234;BME280;43467;50.890;5.982;2024-02-21T10:51:29;100174.75;;;10.57;72.09
36234;BME280;43467;50.890;5.982;2024-02-21T10:54:19;100159.03;;;10.54;71.65
36234;BME280;43467;50.890;5.982;2024-02-21T10:56:50;100143.56;;;10.64;71.60
36234;BME280;43467;50.890;5.982;2024-02-21T10:59:17;100135.28;;;10.71;71.17
36234;BME280;43467;50.890;5.982;2024-02-21T11:01:43;100143.22;;;10.71;70.93
36234;BME280;43467;50.890;5.982;2024-02-21T11:04:11;100117.44;;;10.75;71.07
36234;BME280;43467;50.890;5.982;2024-02-21T11:06:38;100109.03;;;10.84;71.07
36234;BME280;43467;50.890;5.982;2024-02-21T11:09:09;100098.09;;;10.92;70.46
36234;BME280;43467;50.890;5.982;2024-02-21T11:11:43;100080.31;;;10.94;70.08
36234;BME280;43467;50.890;5.982;2024-02-21T11:14:10;100079.69;;;11.06;69.86
36234;BME280;43467;50.890;5.982;2024-02-21T11:16:45;100060.53;;;11.18;69.62
36234;BME280;43467;50.890;5.982;2024-02-21T11:19:20;100028.91;;;11.15;68.97
36234;BME280;43467;50.890;5.982;2024-02-21T11:21:48;100031.16;;;11.23;69.02
36234;BME280;43467;50.890;5.982;2024-02-21T11:24:13;100020.56;;;11.23;68.64
36234;BME280;43467;50.890;5.982;2024-02-21T11:26:40;100016.75;;;11.28;68.94
36234;BME280;43467;50.890;5.982;2024-02-21T11:29:07;100036.97;;;11.29;68.68
36234;BME280;43467;50.890;5.982;2024-02-21T11:31:44;100018.59;;;11.26;68.09
36234;BME280;43467;50.890;5.982;2024-02-21T11:34:11;100021.94;;;11.30;68.25
36234;BME280;43467;50.890;5.982;2024-02-21T11:36:47;100028.19;;;11.29;68.10
36234;BME280;43467;50.890;5.982;2024-02-21T11:39:21;100039.97;;;11.23;68.09
36234;BME280;43467;50.890;5.982;2024-02-21T11:42:08;100031.38;;;11.35;68.30
36234;BME280;43467;50.890;5.982;2024-02-21T11:44:35;100027.56;;;11.41;67.84
36234;BME280;43467;50.890;5.982;2024-02-21T11:47:00;100024.63;;;11.45;67.55
36234;BME280;43467;50.890;5.982;2024-02-21T11:49:29;100015.31;;;11.38;67.30
36234;BME280;43467;50.890;5.982;2024-02-21T11:52:02;99982.84;;;11.50;67.79
36234;BME280;43467;50.890;5.982;2024-02-21T11:54:32;100013.75;;;11.34;67.34
36234;BME280;43467;50.890;5.982;2024-02-21T11:56:58;100022.97;;;11.27;67.09
36234;BME280;43467;50.890;5.982;2024-02-21T11:59:24;100013.69;;;11.36;67.32
36234;BME280;43467;50.890;5.982;2024-02-21T12:01:49;100001.69;;;11.29;67.13
36234;BME280;43467;50.890;5.982;2024-02-21T12:04:18;100003.38;;;11.30;67.73
36234;BME280;43467;50.890;5.982;2024-02-21T12:06:47;99988.56;;;11.43;67.52
36234;BME280;43467;50.890;5.982;2024-02-21T12:09:16;99998.91;;;11.47;66.84
36234;BME280;43467;50.890;5.982;2024-02-21T12:11:42;99965.81;;;11.39;66.59
36234;BME280;43467;50.890;5.982;2024-02-21T12:14:08;99968.28;;;11.42;66.72
36234;BME280;43467;50.890;5.982;2024-02-21T12:16:35;99955.72;;;11.45;66.42
36234;BME280;43467;50.890;5.982;2024-02-21T12:19:03;99962.28;;;11.38;66.24
36234;BME280;43467;50.890;5.982;2024-02-21T12:21:33;99940.09;;;11.41;66.54
36234;BME280;43467;50.890;5.982;2024-02-21T12:24:12;99959.66;;;11.54;66.99
36234;BME280;43467;50.890;5.982;2024-02-21T12:26:39;99934.81;;;11.56;67.15
36234;BME280;43467;50.890;5.982;2024-02-21T12:29:04;99948.63;;;11.79;66.55
36234;BME280;43467;50.890;5.982;2024-02-21T12:31:30;99947.25;;;11.72;66.42
36234;BME280;43467;50.890;5.982;2024-02-21T12:33:55;99936.84;;;11.67;66.42
36234;BME280;43467;50.890;5.982;2024-02-21T12:36:21;99938.25;;;11.74;66.13
36234;BME280;43467;50.890;5.982;2024-02-21T12:38:46;99915.56;;;11.69;65.58
36234;BME280;43467;50.890;5.982;2024-02-21T12:41:14;99904.81;;;11.72;65.30
36234;BME280;43467;50.890;5.982;2024-02-21T12:43:40;99890.66;;;11.71;63.96
36234;BME280;43467;50.890;5.982;2024-02-21T12:46:05;99897.75;;;11.71;64.67
36234;BME280;43467;50.890;5.982;2024-02-21T12:48:33;99877.38;;;11.73;64.81
36234;BME280;43467;50.890;5.982;2024-02-21T12:50:58;99888.47;;;11.79;64.51
36234;BME280;43467;50.890;5.982;2024-02-21T12:53:24;99887.47;;;11.82;64.82
36234;BME280;43467;50.890;5.982;2024-02-21T12:55:50;99884.63;;;11.85;64.09
36234;BME280;43467;50.890;5.982;2024-02-21T12:58:15;99877.59;;;11.84;63.01
36234;BME280;43467;50.890;5.982;2024-02-21T13:00:41;99871.81;;;11.77;63.50